Time;durP1;ratioP1;P1;durP2;ratioP2;P2;SDS_P1;SDS_P2;PMS_P1;PMS_P2;Temp;Humidity;BMP_temperature;BMP_pressure;BME280_temperature;BME280_humidity;BME280_pressure;Samples;Min_cycle;Max_cycle;Signal;HPM_P1;HPM_P2
2021/06/29 00:01:02;;;;;;;;;2.75;1.25;;;;;19.53;56.94;100668.59;4916672;28;45892;-78
2021/06/29 00:03:28;;;;;;;;;1.50;1.50;;;;;19.54;56.96;100664.97;4915984;28;45658;-78
2021/06/29 00:05:53;;;;;;;;;2.00;1.00;;;;;19.55;57.24;100659.47;4916380;28;45990;-79
2021/06/29 00:08:19;;;;;;;;;2.00;1.25;;;;;19.55;57.07;100659.47;4916208;28;45673;-79
2021/06/29 00:10:46;;;;;;;;;0.75;0.75;;;;;19.55;57.25;100653.31;4916292;28;45629;-77
2021/06/29 00:13:12;;;;;;;;;1.50;1.50;;;;;19.56;57.35;100653.16;4898940;28;47565;-77
2021/06/29 00:18:59;;;;;;;;;0.75;0.75;;;;;19.50;57.24;100647.66;4916121;28;45875;-79
2021/06/29 00:21:25;;;;;;;;;2.00;2.00;;;;;19.51;57.71;100655.47;4916340;28;45562;-79
2021/06/29 00:23:50;;;;;;;;;2.00;2.00;;;;;19.48;57.36;100641.69;4916300;28;46208;-79
2021/06/29 00:26:16;;;;;;;;;2.25;2.25;;;;;19.46;57.64;100643.69;4916387;28;46136;-79
2021/06/29 00:28:41;;;;;;;;;2.00;1.25;;;;;19.52;57.45;100651.84;4916077;28;45722;-79
2021/06/29 00:31:07;;;;;;;;;1.25;1.25;;;;;19.53;57.84;100634.88;4915962;28;45659;-80
2021/06/29 00:33:32;;;;;;;;;1.75;0.75;;;;;19.51;57.87;100639.53;4915734;28;47177;-79
2021/06/29 00:35:58;;;;;;;;;1.75;1.75;;;;;19.55;57.88;100638.19;4916239;28;45973;-79
2021/06/29 00:38:23;;;;;;;;;2.00;2.00;;;;;19.56;58.16;100639.03;4916044;28;46030;-79
2021/06/29 00:40:50;;;;;;;;;3.00;2.00;;;;;19.54;57.91;100638.38;4898866;28;45448;-78
2021/06/29 00:43:16;;;;;;;;;3.25;2.75;;;;;19.50;58.02;100629.06;4916132;28;46600;-78
2021/06/29 00:49:03;;;;;;;;;1.50;1.50;;;;;19.54;58.16;100636.53;4915486;28;45576;-80
2021/06/29 00:51:28;;;;;;;;;2.00;2.00;;;;;19.55;58.38;100634.69;4915904;28;45718;-78
2021/06/29 00:53:54;;;;;;;;;1.00;1.00;;;;;19.55;57.84;100638.19;4916081;28;46403;-79
2021/06/29 00:56:19;;;;;;;;;4.00;2.25;;;;;19.54;58.27;100633.06;4915420;28;46126;-79
2021/06/29 00:58:47;;;;;;;;;1.50;1.00;;;;;19.48;58.41;100625.75;4916011;28;45583;-79
2021/06/29 01:01:13;;;;;;;;;2.00;2.00;;;;;19.52;58.03;100627.06;4915926;28;45765;-77
2021/06/29 01:03:40;;;;;;;;;3.00;2.00;;;;;19.52;58.43;100625.25;4916102;28;47048;-78
2021/06/29 01:06:07;;;;;;;;;2.00;2.00;;;;;19.54;58.33;100630.41;4916971;28;46199;-79
2021/06/29 01:08:33;;;;;;;;;1.75;1.75;;;;;19.53;57.98;100626.91;4917682;28;45751;-78
2021/06/29 01:10:59;;;;;;;;;2.00;2.00;;;;;19.49;58.10;100622.06;4920877;28;45775;-77
2021/06/29 01:13:30;;;;;;;;;1.25;1.25;;;;;19.51;58.44;100620.09;4922475;28;46306;-79
2021/06/29 01:19:20;;;;;;;;;1.50;1.50;;;;;19.36;58.16;100596.00;4924318;28;45550;-78
2021/06/29 01:21:48;;;;;;;;;3.00;2.00;;;;;19.37;58.75;100594.16;4920974;28;45729;-78
2021/06/29 01:24:19;;;;;;;;;3.00;2.00;;;;;19.40;58.80;100599.13;4919160;28;46518;-79
2021/06/29 01:26:56;;;;;;;;;5.25;4.25;;;;;19.47;58.58;100611.63;4918541;28;46952;-78
2021/06/29 01:29:30;;;;;;;;;3.00;2.25;;;;;19.34;58.62;100586.50;4918772;28;45659;-78
2021/06/29 01:31:56;;;;;;;;;3.00;3.00;;;;;19.46;58.23;100615.28;4918364;28;45609;-79
2021/06/29 01:34:21;;;;;;;;;2.50;1.50;;;;;19.45;58.38;100613.63;4918734;28;46312;-79
2021/06/29 01:36:49;;;;;;;;;2.00;2.00;;;;;19.46;58.61;100617.09;4918418;28;45651;-80
2021/06/29 01:39:14;;;;;;;;;2.00;2.00;;;;;19.44;58.79;100616.41;4918449;28;45837;-79
2021/06/29 01:41:39;;;;;;;;;2.50;2.50;;;;;19.42;58.56;100608.63;4918619;28;45880;-78
2021/06/29 01:44:11;;;;;;;;;2.00;2.00;;;;;19.35;58.85;100591.66;4918235;28;46528;-79
2021/06/29 01:46:39;;;;;;;;;3.00;3.00;;;;;19.34;58.94;100586.50;4917911;28;46564;-79
2021/06/29 01:49:05;;;;;;;;;3.00;2.00;;;;;19.38;59.15;100593.16;4918405;28;45576;-79
2021/06/29 01:51:31;;;;;;;;;1.50;1.50;;;;;19.36;58.60;100587.19;4918159;28;45812;-79
2021/06/29 01:53:56;;;;;;;;;2.00;2.00;;;;;19.35;58.94;100599.63;4918186;28;47430;-79
2021/06/29 01:56:27;;;;;;;;;3.75;2.75;;;;;19.35;59.30;100594.31;4918338;28;46120;-77
2021/06/29 02:04:59;;;;;;;;;2.00;1.75;;;;;19.31;59.38;100592.16;4918161;28;45659;-78
2021/06/29 02:07:24;;;;;;;;;2.00;2.00;;;;;19.34;59.01;100591.81;4918307;28;46642;-79
2021/06/29 02:09:49;;;;;;;;;1.50;1.50;;;;;19.34;58.80;100586.50;4918032;28;45657;-80
2021/06/29 02:12:15;;;;;;;;;2.75;2.75;;;;;19.33;59.26;100580.34;4918469;28;45580;-79
2021/06/29 02:14:41;;;;;;;;;1.50;1.50;;;;;19.19;59.24;100565.09;4918043;28;46588;-79
2021/06/29 02:17:06;;;;;;;;;2.75;2.50;;;;;19.29;58.96;100582.53;4917742;28;45930;-80
2021/06/29 02:19:32;;;;;;;;;3.00;3.00;;;;;19.33;58.98;100587.50;4917827;28;45655;-79
2021/06/29 02:21:57;;;;;;;;;3.50;2.00;;;;;19.32;58.99;100589.34;4917980;28;45669;-78
2021/06/29 02:24:22;;;;;;;;;1.50;1.50;;;;;19.32;59.05;100581.38;4917866;28;46628;-78
2021/06/29 02:26:48;;;;;;;;;3.00;2.75;;;;;19.27;59.17;100576.53;4917411;28;45728;-79
2021/06/29 02:29:13;;;;;;;;;1.50;1.50;;;;;19.20;59.53;100564.09;4917848;28;45509;-79
2021/06/29 02:31:39;;;;;;;;;3.00;2.00;;;;;19.22;59.45;100567.41;4917501;28;45901;-80
2021/06/29 02:34:04;;;;;;;;;1.75;1.50;;;;;19.29;59.45;100590.50;4917612;28;47446;-78
2021/06/29 02:36:30;;;;;;;;;2.25;2.25;;;;;19.20;59.34;100564.94;4917290;28;46387;-79
2021/06/29 02:38:55;;;;;;;;;3.50;2.50;;;;;19.26;59.30;100582.88;4900687;28;45896;-80
2021/06/29 02:41:20;;;;;;;;;2.50;2.00;;;;;19.21;59.66;100577.22;4917704;28;45811;-80
2021/06/29 02:43:47;;;;;;;;;3.00;2.50;;;;;19.18;59.59;100574.06;4917719;28;45594;-80
2021/06/29 02:49:34;;;;;;;;;4.00;3.00;;;;;19.19;59.67;100576.56;4916261;28;45574;-79
2021/06/29 02:52:00;;;;;;;;;2.00;2.00;;;;;19.14;59.21;100570.91;4900463;28;45584;-79
2021/06/29 02:54:25;;;;;;;;;3.50;2.50;;;;;19.12;59.92;100561.44;4917755;28;45617;-81
2021/06/29 02:56:50;;;;;;;;;1.50;1.50;;;;;19.13;60.01;100563.09;4917352;28;45667;-79
2021/06/29 02:59:17;;;;;;;;;2.50;2.50;;;;;19.13;59.94;100574.56;4917600;28;45568;-79
2021/06/29 03:01:43;;;;;;;;;2.00;2.00;;;;;19.08;59.58;100562.75;4917628;28;45763;-79
2021/06/29 03:04:10;;;;;;;;;3.25;2.50;;;;;19.13;59.85;100560.44;4917795;28;45625;-79
2021/06/29 03:06:35;;;;;;;;;2.25;2.00;;;;;19.00;59.94;100534.34;4917175;28;46982;-79
2021/06/29 03:09:03;;;;;;;;;2.75;2.25;;;;;19.00;60.14;100539.66;4917301;28;45692;-80
2021/06/29 03:11:28;;;;;;;;;2.00;2.00;;;;;19.03;59.74;100544.66;4919922;28;45804;-79
2021/06/29 03:13:54;;;;;;;;;4.00;3.00;;;;;19.09;59.59;100553.81;4921071;28;46729;-79
2021/06/29 03:19:41;;;;;;;;;2.00;2.00;;;;;19.07;59.60;100553.97;4923664;28;45694;-79
2021/06/29 03:22:06;;;;;;;;;2.75;2.00;;;;;19.00;59.78;100538.88;4923291;28;45957;-78
2021/06/29 03:24:32;;;;;;;;;2.00;2.00;;;;;19.07;59.73;100553.97;4924092;28;46353;-79
2021/06/29 03:26:57;;;;;;;;;3.25;1.50;;;;;19.06;60.13;100554.13;4922062;28;45534;-80
2021/06/29 03:29:23;;;;;;;;;2.25;1.25;;;;;19.05;59.83;100541.84;4917063;28;45792;-79
2021/06/29 03:31:49;;;;;;;;;2.25;2.25;;;;;18.99;60.11;100535.38;4917263;28;45559;-79
2021/06/29 03:34:14;;;;;;;;;2.00;2.00;;;;;19.04;60.22;100540.19;4916915;28;46220;-80
2021/06/29 03:36:41;;;;;;;;;1.50;1.50;;;;;19.00;59.71;100531.69;4916588;28;46079;-80
2021/06/29 03:39:07;;;;;;;;;2.25;2.25;;;;;18.99;59.64;100538.03;4915818;28;45567;-80
2021/06/29 03:41:33;;;;;;;;;1.75;1.75;;;;;18.99;60.02;100538.03;4916862;28;45901;-78
2021/06/29 03:43:59;;;;;;;;;3.00;3.00;;;;;18.86;59.66;100511.97;4916629;28;46516;-79
2021/06/29 03:49:45;;;;;;;;;3.00;3.00;;;;;18.99;59.87;100538.03;4915773;28;45484;-79
2021/06/29 03:52:11;;;;;;;;;2.00;2.00;;;;;18.99;59.81;100542.50;4916655;28;45869;-80
2021/06/29 03:54:36;;;;;;;;;3.00;2.00;;;;;18.80;59.96;100512.63;4916164;28;47422;-79
2021/06/29 03:57:02;;;;;;;;;4.00;2.75;;;;;18.94;60.10;100539.53;4916073;28;46266;-78
2021/06/29 03:59:27;;;;;;;;;2.75;2.00;;;;;18.91;59.71;100535.34;4916314;28;45622;-79
2021/06/29 04:05:17;;;;;;;;;4.00;4.00;;;;;18.82;59.99;100533.69;4916194;28;45657;-78
2021/06/29 04:07:44;;;;;;;;;2.75;2.75;;;;;18.83;59.85;100540.69;4916412;28;45848;-79
2021/06/29 04:10:09;;;;;;;;;2.50;1.75;;;;;18.75;59.94;100533.50;4916135;28;45598;-81
2021/06/29 04:12:35;;;;;;;;;2.50;2.50;;;;;18.75;59.74;100540.66;4899030;28;45912;-79
2021/06/29 04:15:00;;;;;;;;;3.00;2.75;;;;;18.71;59.92;100545.47;4916503;28;46332;-79
2021/06/29 04:17:26;;;;;;;;;2.00;2.00;;;;;18.68;59.85;100532.50;4916149;28;46119;-79
2021/06/29 04:19:54;;;;;;;;;3.00;3.00;;;;;18.69;59.73;100541.28;4916109;28;45721;-79
2021/06/29 04:22:19;;;;;;;;;4.00;3.00;;;;;18.65;60.15;100534.66;4916551;28;45560;-80
2021/06/29 04:24:44;;;;;;;;;2.00;2.00;;;;;18.71;60.38;100541.97;4899275;28;45887;-79
2021/06/29 04:27:10;;;;;;;;;2.00;2.00;;;;;18.71;59.74;100541.97;4915988;28;46150;-79
2021/06/29 04:29:35;;;;;;;;;3.75;3.25;;;;;18.62;59.97;100516.41;4916181;28;45811;-79
2021/06/29 04:35:23;;;;;;;;;3.00;3.00;;;;;18.65;59.83;100527.53;4915847;28;45700;-80
2021/06/29 04:37:48;;;;;;;;;4.50;3.00;;;;;18.56;60.34;100522.38;4916090;28;45934;-80
2021/06/29 04:40:14;;;;;;;;;10.75;7.75;;;;;18.71;59.80;100531.34;4915973;28;45527;-80
2021/06/29 04:42:39;;;;;;;;;6.50;6.00;;;;;18.71;59.88;100529.53;4915957;28;45760;-79
2021/06/29 04:45:05;;;;;;;;;3.25;2.50;;;;;18.72;60.42;100536.50;4916254;28;46349;-79
2021/06/29 04:47:38;;;;;;;;;6.00;5.00;;;;;18.62;59.87;100516.41;4898737;28;46234;-79
2021/06/29 04:50:05;;;;;;;;;4.00;4.00;;;;;18.69;60.41;100522.72;4916835;28;45826;-79
2021/06/29 04:52:30;;;;;;;;;3.75;3.00;;;;;18.71;60.01;100526.03;4919583;28;45574;-79
2021/06/29 04:54:56;;;;;;;;;6.00;5.50;;;;;18.63;60.33;100507.44;4902256;28;47259;-79
2021/06/29 04:57:24;;;;;;;;;2.00;2.00;;;;;18.73;60.15;100530.19;4919010;28;46980;-78
2021/06/29 04:59:56;;;;;;;;;8.00;7.00;;;;;18.69;60.04;100518.25;4919135;28;45889;-80
2021/06/29 05:02:23;;;;;;;;;3.50;3.50;;;;;18.28;60.07;100455.44;4919463;28;45823;-79
2021/06/29 05:04:48;;;;;;;;;2.00;2.00;;;;;18.76;59.89;100527.22;4901598;28;47438;-79
2021/06/29 05:07:13;;;;;;;;;1.50;1.50;;;;;18.78;59.96;100532.38;4919185;28;46068;-79
2021/06/29 05:09:39;;;;;;;;;2.25;2.25;;;;;18.71;60.56;100520.75;4919269;28;45615;-79
2021/06/29 05:12:04;;;;;;;;;5.25;3.75;;;;;18.80;60.60;100541.81;4901997;28;45841;-79
2021/06/29 05:14:30;;;;;;;;;3.00;3.00;;;;;18.74;60.14;100528.38;4919100;28;47484;-80
2021/06/29 05:20:17;;;;;;;;;4.75;4.25;;;;;18.76;60.26;100548.44;4918728;28;45762;-80
2021/06/29 05:22:43;;;;;;;;;5.00;3.00;;;;;18.77;60.59;100560.75;4919464;28;45561;-79
2021/06/29 05:25:09;;;;;;;;;5.00;4.50;;;;;18.67;60.41;100540.66;4919215;28;45729;-80
2021/06/29 05:27:42;;;;;;;;;3.00;3.00;;;;;18.75;60.05;100565.38;4925043;28;46007;-80
2021/06/29 05:30:08;;;;;;;;;3.00;3.00;;;;;18.76;60.36;100559.06;4923792;28;45934;-78
2021/06/29 05:32:34;;;;;;;;;2.50;2.00;;;;;18.78;60.18;100562.41;4924965;28;45653;-79
2021/06/29 05:34:59;;;;;;;;;3.00;2.00;;;;;18.79;60.15;100560.56;4926456;28;45769;-79
2021/06/29 05:37:25;;;;;;;;;5.00;2.50;;;;;18.77;60.29;100560.75;4926058;28;45576;-78
2021/06/29 05:39:50;;;;;;;;;3.00;3.00;;;;;18.77;60.11;100563.41;4921091;28;45630;-79
2021/06/29 05:42:16;;;;;;;;;2.00;2.00;;;;;18.77;60.37;100574.00;4902117;28;45870;-80
2021/06/29 05:44:41;;;;;;;;;6.25;5.50;;;;;18.76;60.52;100572.34;4919004;28;46963;-79
2021/06/29 05:50:28;;;;;;;;;2.00;2.00;;;;;18.74;60.84;100576.97;4917400;28;45701;-80
2021/06/29 05:52:55;;;;;;;;;2.00;2.00;;;;;18.74;60.61;100584.94;4918805;28;45646;-79
2021/06/29 05:55:20;;;;;;;;;4.00;3.25;;;;;18.73;60.94;100582.47;4918551;28;47298;-79
2021/06/29 05:57:46;;;;;;;;;3.50;3.00;;;;;18.74;60.33;100586.75;4918026;28;45589;-79
2021/06/29 06:00:16;;;;;;;;;4.50;4.00;;;;;18.75;60.56;100585.78;4901087;28;46190;-79
2021/06/29 06:02:42;;;;;;;;;7.00;7.00;;;;;18.75;60.43;100585.78;4900307;28;46044;-80
2021/06/29 06:05:09;;;;;;;;;5.75;5.00;;;;;18.73;60.89;100583.25;4918361;28;46561;-79
2021/06/29 06:07:35;;;;;;;;;4.50;4.50;;;;;18.68;60.66;100571.47;4918359;28;46100;-79
2021/06/29 06:10:02;;;;;;;;;3.00;3.00;;;;;18.82;60.75;100594.75;4918057;28;45831;-79
2021/06/29 06:12:28;;;;;;;;;3.00;3.00;;;;;18.77;60.28;100586.44;4918236;28;45844;-79
2021/06/29 06:14:55;;;;;;;;;3.50;2.75;;;;;18.76;60.74;100576.81;4918304;28;46498;-80
2021/06/29 06:20:42;;;;;;;;;3.00;3.00;;;;;18.79;60.84;100587.94;4918019;28;45655;-80
2021/06/29 06:23:08;;;;;;;;;3.75;3.50;;;;;18.85;60.36;100599.72;4918454;28;45841;-81
2021/06/29 06:25:34;;;;;;;;;3.25;3.00;;;;;18.81;60.90;100599.22;4918180;28;46444;-81
2021/06/29 06:28:01;;;;;;;;;3.00;3.00;;;;;18.71;60.61;100572.00;4917950;28;45643;-80
2021/06/29 06:30:27;;;;;;;;;3.00;2.50;;;;;18.85;60.31;100599.72;4917795;28;45789;-80
2021/06/29 06:32:52;;;;;;;;;5.00;4.00;;;;;18.78;61.04;100581.00;4917930;28;45618;-80
2021/06/29 06:35:18;;;;;;;;;4.00;4.00;;;;;18.91;60.84;100606.22;4917973;28;46400;-80
2021/06/29 06:37:43;;;;;;;;;3.50;2.50;;;;;18.93;60.73;100598.94;4900386;28;47317;-80
2021/06/29 06:40:10;;;;;;;;;4.25;3.25;;;;;18.93;60.79;100601.59;4917769;28;45718;-80
2021/06/29 06:42:36;;;;;;;;;3.75;3.75;;;;;18.90;60.65;100589.44;4918216;28;45631;-79
2021/06/29 06:45:04;;;;;;;;;4.00;3.00;;;;;18.95;60.58;100600.41;4917747;28;47078;-81
2021/06/29 06:50:51;;;;;;;;;3.00;3.00;;;;;18.99;61.28;100600.94;4916907;28;45803;-79
2021/06/29 06:53:16;;;;;;;;;4.50;3.75;;;;;18.98;61.18;100604.56;4918653;28;45612;-79
2021/06/29 06:55:41;;;;;;;;;4.00;3.50;;;;;18.97;61.15;100597.59;4918367;28;45870;-78
2021/06/29 06:58:07;;;;;;;;;3.25;3.25;;;;;18.93;61.06;100594.44;4918482;28;45776;-78
2021/06/29 07:00:32;;;;;;;;;4.00;3.25;;;;;18.98;60.97;100602.75;4918415;28;45709;-79
2021/06/29 07:02:58;;;;;;;;;5.75;4.75;;;;;18.96;61.12;100601.25;4918915;28;45558;-80
2021/06/29 07:05:24;;;;;;;;;5.00;5.00;;;;;18.98;60.98;100608.06;4918418;28;47671;-79
2021/06/29 07:07:50;;;;;;;;;5.25;5.25;;;;;18.96;61.35;100606.56;4919694;28;45941;-77
2021/06/29 07:10:15;;;;;;;;;5.50;4.75;;;;;19.01;60.91;100612.19;4901468;28;45601;-78
2021/06/29 07:12:41;;;;;;;;;6.50;4.50;;;;;18.91;61.48;100600.91;4918037;28;45659;-79
2021/06/29 07:15:07;;;;;;;;;5.00;4.00;;;;;19.01;61.10;100613.03;4916464;28;46339;-80
2021/06/29 07:20:54;;;;;;;;;15.75;11.50;;;;;19.01;61.20;100609.53;4916861;28;45902;-80
2021/06/29 07:23:20;;;;;;;;;7.50;5.25;;;;;18.98;61.46;100609.88;4899946;28;46014;-79
2021/06/29 07:25:46;;;;;;;;;4.50;3.00;;;;;19.02;61.14;100609.41;4917811;28;45585;-79
2021/06/29 07:28:12;;;;;;;;;3.50;2.50;;;;;19.06;61.68;100616.03;4917426;28;47148;-80
2021/06/29 07:30:38;;;;;;;;;5.75;5.00;;;;;19.02;61.68;100614.69;4917789;28;45694;-81
2021/06/29 07:33:05;;;;;;;;;3.50;3.50;;;;;19.03;61.65;100621.69;4900893;28;45952;-80
2021/06/29 07:35:31;;;;;;;;;4.00;4.00;;;;;19.06;61.80;100615.19;4918395;28;45693;-79
2021/06/29 07:37:59;;;;;;;;;3.50;2.50;;;;;18.99;61.84;100612.38;4918546;28;45643;-81
2021/06/29 07:40:25;;;;;;;;;3.00;3.00;;;;;19.06;61.96;100628.47;4920643;28;45727;-81
2021/06/29 07:42:55;;;;;;;;;3.50;3.50;;;;;19.06;61.58;100623.16;4920957;28;45557;-82
2021/06/29 07:45:32;;;;;;;;;4.00;3.50;;;;;18.98;62.23;100613.38;5131640;27;46043;-81
2021/06/29 07:48:01;;;;;;;;;4.00;3.00;;;;;19.06;62.11;100616.03;5086968;27;45750;-82
2021/06/29 07:50:28;;;;;;;;;3.00;3.00;;;;;19.10;61.72;100612.06;5091374;27;45677;-81
2021/06/29 07:52:53;;;;;;;;;4.00;3.00;;;;;19.01;61.76;100597.09;5089236;27;46878;-83
2021/06/29 07:55:19;;;;;;;;;3.00;3.00;;;;;19.09;61.87;100610.41;5079381;27;46622;-80
2021/06/29 07:57:44;;;;;;;;;3.50;3.50;;;;;19.14;61.94;100624.03;5089441;27;45658;-82
2021/06/29 08:00:11;;;;;;;;;3.00;3.00;;;;;19.14;61.70;100613.41;5088884;27;45751;-81
2021/06/29 08:02:36;;;;;;;;;2.00;2.00;;;;;19.13;61.69;100618.88;5075189;27;45760;-81
2021/06/29 08:05:02;;;;;;;;;1.25;1.25;;;;;19.11;61.32;100623.53;5089618;27;46225;-81
2021/06/29 08:07:29;;;;;;;;;0.75;0.75;;;;;19.10;61.40;100620.03;5088888;27;45665;-81
2021/06/29 08:09:54;;;;;;;;;2.00;1.75;;;;;19.14;61.36;100624.03;5088207;27;45573;-80
2021/06/29 08:12:19;;;;;;;;;2.75;2.75;;;;;19.13;61.64;100630.34;5085263;27;46438;-81
2021/06/29 08:14:45;;;;;;;;;1.00;1.00;;;;;19.15;61.13;100624.88;5089166;27;45737;-81
2021/06/29 08:17:11;;;;;;;;;1.00;1.00;;;;;19.20;61.03;100623.38;5090736;27;45803;-82
2021/06/29 08:19:38;;;;;;;;;2.00;2.00;;;;;19.22;61.13;100625.84;5090602;27;46304;-81
2021/06/29 08:22:04;;;;;;;;;1.50;1.50;;;;;19.11;61.17;100612.91;5089640;27;47535;-82
2021/06/29 08:24:31;;;;;;;;;1.50;1.50;;;;;19.23;61.16;100635.47;5089798;27;45956;-83
2021/06/29 08:26:56;;;;;;;;;3.50;2.75;;;;;19.26;61.19;100635.16;5087455;27;45759;-81
2021/06/29 08:29:22;;;;;;;;;2.75;2.00;;;;;19.29;61.30;100629.50;5081895;27;45644;-82
2021/06/29 08:31:47;;;;;;;;;2.75;2.25;;;;;19.33;61.01;100632.66;5088764;27;45683;-81
2021/06/29 08:34:13;;;;;;;;;2.75;1.75;;;;;19.33;60.61;100636.16;5088970;27;45968;-79
2021/06/29 08:36:41;;;;;;;;;3.25;3.25;;;;;19.33;61.14;100625.53;5076770;27;45939;-80
2021/06/29 08:39:09;;;;;;;;;2.00;2.00;;;;;19.34;60.99;100637.00;5088274;27;45886;-80
2021/06/29 08:41:34;;;;;;;;;1.75;1.75;;;;;19.34;60.64;100637.81;5088408;27;45774;-82
2021/06/29 08:44:00;;;;;;;;;2.25;2.25;;;;;19.26;61.12;100620.06;5086607;27;45704;-80
2021/06/29 08:46:25;;;;;;;;;1.75;1.75;;;;;19.40;60.88;100634.50;5084741;27;45505;-80
2021/06/29 08:48:51;;;;;;;;;3.00;1.75;;;;;19.35;60.78;100618.22;5088528;27;45841;-79
2021/06/29 08:51:17;;;;;;;;;2.50;2.50;;;;;19.48;60.81;100626.59;5088090;27;46417;-80
2021/06/29 08:53:43;;;;;;;;;1.50;1.50;;;;;19.51;60.75;100623.59;5088395;27;46033;-79
2021/06/29 08:56:14;;;;;;;;;2.50;2.25;;;;;19.51;60.81;100617.44;5078136;27;45760;-80
2021/06/29 08:58:40;;;;;;;;;2.75;2.00;;;;;19.57;60.39;100625.59;5074764;28;45822;-81
2021/06/29 09:01:05;;;;;;;;;2.00;2.00;;;;;19.54;60.62;100609.94;5070133;27;46304;-80
2021/06/29 09:03:31;;;;;;;;;2.00;1.50;;;;;19.61;60.74;100616.28;5065247;28;47018;-79
2021/06/29 09:05:57;;;;;;;;;1.00;1.00;;;;;19.58;60.44;100605.97;5074319;27;45726;-79
2021/06/29 09:08:24;;;;;;;;;1.50;1.50;;;;;19.78;60.79;100634.88;5070142;27;45704;-80
2021/06/29 09:11:22;;;;;;;;;1.50;1.50;;;;;19.82;60.78;100629.03;5071849;28;45687;-80
2021/06/29 09:14:15;;;;;;;;;2.00;1.00;;;;;19.80;60.02;100608.94;5011590;28;45993;-80
2021/06/29 09:16:41;;;;;;;;;1.75;1.75;;;;;19.93;60.44;100625.19;5011450;28;45714;-80
2021/06/29 09:19:06;;;;;;;;;2.00;2.00;;;;;19.96;60.26;100625.72;5011401;28;45682;-79
2021/06/29 09:21:36;;;;;;;;;2.25;2.00;;;;;20.00;59.87;100632.34;5011866;28;46518;-80
2021/06/29 09:24:02;;;;;;;;;2.75;2.00;;;;;19.96;59.93;100622.22;5011806;28;47068;-80
2021/06/29 09:26:28;;;;;;;;;2.25;2.25;;;;;19.99;59.71;100630.69;5011386;28;45784;-79
2021/06/29 09:28:56;;;;;;;;;1.75;1.75;;;;;19.98;59.51;100614.88;5011433;28;45863;-80
2021/06/29 09:31:27;;;;;;;;;1.00;1.00;;;;;19.87;59.47;100604.59;5011750;28;46671;-79
2021/06/29 09:34:03;;;;;;;;;0.75;0.75;;;;;20.05;59.25;100624.69;4999558;28;46008;-80
2021/06/29 09:36:31;;;;;;;;;0.75;0.75;;;;;20.02;59.16;100617.06;5011466;28;46948;-79
2021/06/29 09:38:59;;;;;;;;;1.00;1.00;;;;;20.11;58.63;100621.34;5015058;28;45734;-80
2021/06/29 09:41:30;;;;;;;;;2.00;2.00;;;;;20.15;58.60;100624.50;5014516;28;47163;-79
2021/06/29 09:44:03;;;;;;;;;3.00;2.00;;;;;20.12;58.66;100616.88;5013732;28;46512;-80
2021/06/29 09:46:30;;;;;;;;;1.50;1.25;;;;;20.17;58.73;100621.66;5017759;28;45783;-77
2021/06/29 09:49:00;;;;;;;;;2.00;1.00;;;;;20.19;58.44;100614.34;5037187;28;45819;-80
2021/06/29 09:51:29;;;;;;;;;2.50;2.00;;;;;20.24;58.32;100615.50;5078144;28;45647;-81
2021/06/29 09:53:57;;;;;;;;;3.25;2.00;;;;;20.27;58.21;100622.31;5072303;28;46341;-81
2021/06/29 09:56:40;;;;;;;;;1.00;1.00;;;;;20.19;58.04;100598.41;5075599;27;45898;-80
2021/06/29 09:59:12;;;;;;;;;1.00;1.00;;;;;20.26;57.69;100602.84;5073999;28;45792;-82
2021/06/29 10:01:37;;;;;;;;;1.00;1.00;;;;;20.32;57.56;100615.50;5065275;27;46518;-80
2021/06/29 10:04:04;;;;;;;;;1.00;1.00;;;;;20.37;56.82;100615.81;5069165;28;46012;-80
2021/06/29 10:06:34;;;;;;;;;1.00;1.00;;;;;20.40;56.89;100622.63;5072771;28;45708;-81
2021/06/29 10:09:07;;;;;;;;;0.75;0.75;;;;;20.41;57.00;100613.63;5064037;27;45718;-79
2021/06/29 10:11:34;;;;;;;;;1.00;1.00;;;;;20.42;56.79;100615.28;5063755;28;45957;-81
2021/06/29 10:14:12;;;;;;;;;1.50;1.50;;;;;20.49;56.72;100614.44;5073560;27;45677;-79
2021/06/29 10:16:45;;;;;;;;;0.75;0.25;;;;;20.50;56.20;100620.59;5073362;28;46053;-79
2021/06/29 10:22:00;;;;;;;;;1.75;1.00;;;;;20.51;55.60;100612.41;5073579;28;45735;-81
2021/06/29 10:24:29;;;;;;;;;0.00;0.00;;;;;20.54;55.53;100613.91;5072380;28;46975;-81
2021/06/29 10:26:57;;;;;;;;;1.00;1.00;;;;;20.55;55.72;100615.56;5066687;28;45671;-78
2021/06/29 10:29:24;;;;;;;;;1.00;1.00;;;;;20.50;55.05;100607.28;5073257;27;45712;-80
2021/06/29 10:31:55;;;;;;;;;1.00;1.00;;;;;20.50;55.25;100610.78;5071984;28;46596;-79
2021/06/29 10:34:21;;;;;;;;;1.00;0.00;;;;;20.53;55.05;100617.56;5073013;28;47027;-79
2021/06/29 10:36:52;;;;;;;;;1.75;1.75;;;;;20.48;55.07;100603.94;5061493;27;45794;-81
2021/06/29 10:39:23;;;;;;;;;0.25;0.25;;;;;20.56;55.14;100608.44;5073241;28;45775;-80
2021/06/29 10:42:07;;;;;;;;;1.75;1.00;;;;;20.58;54.97;100609.88;5071948;28;47343;-81
2021/06/29 10:44:41;;;;;;;;;1.25;1.00;;;;;20.60;54.99;100610.56;5069511;28;46468;-80
2021/06/29 10:47:24;;;;;;;;;0.50;0.50;;;;;20.60;54.69;100612.38;5061816;28;45740;-79
2021/06/29 10:49:52;;;;;;;;;1.00;1.00;;;;;20.60;54.87;100605.22;5072772;28;45584;-80
2021/06/29 10:52:24;;;;;;;;;1.25;1.25;;;;;20.61;54.57;100606.06;5073064;27;45656;-79
2021/06/29 10:54:54;;;;;;;;;1.00;1.00;;;;;20.59;54.24;100602.75;5072234;27;46989;-79
2021/06/29 10:57:23;;;;;;;;;1.25;1.00;;;;;20.51;54.36;100593.78;5072705;28;45684;-80
2021/06/29 10:59:55;;;;;;;;;1.00;1.00;;;;;20.49;54.51;100592.31;5072031;27;46050;-79
2021/06/29 11:02:28;;;;;;;;;1.00;1.00;;;;;20.54;54.27;100597.94;5058735;28;46491;-80
2021/06/29 11:04:58;;;;;;;;;1.00;0.00;;;;;20.56;53.78;100598.59;5072785;28;45953;-80
2021/06/29 11:07:26;;;;;;;;;0.00;0.00;;;;;20.60;54.07;100607.06;5072689;27;46120;-81
2021/06/29 11:09:58;;;;;;;;;0.00;0.00;;;;;20.63;54.27;100607.53;5072409;27;45849;-80
2021/06/29 11:12:31;;;;;;;;;0.50;0.50;;;;;20.67;54.12;100605.38;5072597;27;47074;-80
2021/06/29 11:14:59;;;;;;;;;1.00;1.00;;;;;20.74;53.86;100609.81;5072478;27;45659;-80
2021/06/29 11:17:46;;;;;;;;;0.00;0.00;;;;;20.77;53.58;100604.16;5072105;27;45881;-80
2021/06/29 11:20:13;;;;;;;;;1.00;1.00;;;;;20.81;53.61;100601.97;5071977;28;45670;-80
2021/06/29 11:22:49;;;;;;;;;0.00;0.00;;;;;20.83;53.41;100598.13;5072495;28;47267;-81
2021/06/29 11:25:30;;;;;;;;;1.00;1.00;;;;;20.86;53.62;100607.59;5072050;28;45995;-80
2021/06/29 11:28:06;;;;;;;;;1.00;1.00;;;;;20.80;53.33;100595.81;5066257;27;45559;-80
2021/06/29 11:31:01;;;;;;;;;1.50;0.00;;;;;20.82;53.12;100601.78;5072053;27;45703;-80
2021/06/29 11:33:31;;;;;;;;;1.50;0.50;;;;;20.81;53.36;100607.28;5072176;27;47344;-77
2021/06/29 11:35:57;;;;;;;;;0.00;0.00;;;;;20.79;53.26;100604.78;5062871;27;45757;-78
2021/06/29 11:38:40;;;;;;;;;0.50;0.25;;;;;20.85;53.32;100608.59;5069950;28;45522;-79
2021/06/29 11:41:24;;;;;;;;;0.00;0.00;;;;;20.91;52.58;100607.88;5073868;28;45604;-78
2021/06/29 11:43:51;;;;;;;;;1.25;1.00;;;;;20.90;52.57;100599.06;5064382;28;45723;-81
2021/06/29 11:46:47;;;;;;;;;0.00;0.00;;;;;20.97;52.69;100598.38;5073991;28;45997;-78
2021/06/29 11:49:15;;;;;;;;;0.00;0.00;;;;;21.05;53.04;100603.66;5075328;28;45771;-78
2021/06/29 11:51:53;;;;;;;;;0.75;0.75;;;;;21.08;52.41;100587.31;5078490;28;45859;-79
2021/06/29 11:54:42;;;;;;;;;1.00;1.00;;;;;21.17;52.49;100595.09;5079024;27;47753;-77
2021/06/29 11:57:15;;;;;;;;;1.75;1.00;;;;;21.22;52.22;100590.03;5078685;27;46099;-79
2021/06/29 11:59:41;;;;;;;;;2.00;1.00;;;;;21.23;52.33;100578.38;5077365;27;45813;-79
2021/06/29 12:02:08;;;;;;;;;1.75;0.50;;;;;21.32;52.00;100589.84;5061703;28;45849;-78
2021/06/29 12:04:34;;;;;;;;;0.00;0.00;;;;;21.35;51.93;100582.28;5073058;27;46058;-80
2021/06/29 12:07:05;;;;;;;;;0.50;0.25;;;;;21.38;51.71;100574.97;5070625;27;46561;-78
2021/06/29 12:09:32;;;;;;;;;1.00;0.00;;;;;21.40;52.02;100572.91;5061506;28;45667;-78
2021/06/29 12:12:17;;;;;;;;;1.00;0.00;;;;;21.50;51.52;100589.50;5065700;28;45642;-79
2021/06/29 12:14:43;;;;;;;;;0.00;0.00;;;;;21.49;50.89;100586.00;5064189;28;46359;-78
2021/06/29 12:17:09;;;;;;;;;0.00;0.00;;;;;21.43;50.82;100581.38;5071033;27;46379;-78
2021/06/29 12:19:34;;;;;;;;;0.00;0.00;;;;;21.49;50.57;100591.31;5071326;27;45611;-77